sensor_id;sensor_type;location;lat;lon;timestamp;P1;durP1;ratioP1;P2;durP2;ratioP2
29534;SDS011;16475;52.650;8.116;2023-06-22T00:01:49;5.27;;;2.97;;
29534;SDS011;16475;52.650;8.116;2023-06-22T00:04:14;3.23;;;2.40;;
29534;SDS011;16475;52.650;8.116;2023-06-22T00:06:40;8.30;;;4.37;;
29534;SDS011;16475;52.650;8.116;2023-06-22T00:09:05;12.97;;;3.73;;
29534;SDS011;16475;52.650;8.116;2023-06-22T00:11:32;6.70;;;4.10;;
29534;SDS011;16475;52.650;8.116;2023-06-22T00:13:58;5.00;;;3.80;;
29534;SDS011;16475;52.650;8.116;2023-06-22T00:16:24;6.53;;;4.20;;
29534;SDS011;16475;52.650;8.116;2023-06-22T00:18:49;2.97;;;2.60;;
29534;SDS011;16475;52.650;8.116;2023-06-22T00:21:15;3.60;;;3.30;;
29534;SDS011;16475;52.650;8.116;2023-06-22T00:23:40;5.63;;;3.13;;
29534;SDS011;16475;52.650;8.116;2023-06-22T00:26:06;4.87;;;3.27;;
29534;SDS011;16475;52.650;8.116;2023-06-22T00:28:31;7.60;;;4.97;;
29534;SDS011;16475;52.650;8.116;2023-06-22T00:30:56;7.30;;;3.63;;
29534;SDS011;16475;52.650;8.116;2023-06-22T00:33:22;6.80;;;3.87;;
29534;SDS011;16475;52.650;8.116;2023-06-22T00:35:47;8.13;;;3.63;;
29534;SDS011;16475;52.650;8.116;2023-06-22T00:38:13;6.40;;;3.60;;
29534;SDS011;16475;52.650;8.116;2023-06-22T00:40:38;12.80;;;3.10;;
29534;SDS011;16475;52.650;8.116;2023-06-22T00:43:04;6.13;;;3.43;;
29534;SDS011;16475;52.650;8.116;2023-06-22T00:45:30;5.47;;;3.37;;
29534;SDS011;16475;52.650;8.116;2023-06-22T00:47:57;11.30;;;4.60;;
29534;SDS011;16475;52.650;8.116;2023-06-22T00:50:25;6.57;;;4.43;;
29534;SDS011;16475;52.650;8.116;2023-06-22T00:52:56;5.23;;;3.37;;
29534;SDS011;16475;52.650;8.116;2023-06-22T00:55:23;14.03;;;4.00;;
29534;SDS011;16475;52.650;8.116;2023-06-22T00:57:50;4.63;;;3.40;;
29534;SDS011;16475;52.650;8.116;2023-06-22T01:00:20;5.73;;;4.80;;
29534;SDS011;16475;52.650;8.116;2023-06-22T01:02:46;4.23;;;2.60;;
29534;SDS011;16475;52.650;8.116;2023-06-22T01:05:15;3.33;;;2.90;;
29534;SDS011;16475;52.650;8.116;2023-06-22T01:07:55;4.47;;;3.13;;
29534;SDS011;16475;52.650;8.116;2023-06-22T01:10:29;5.13;;;3.50;;
29534;SDS011;16475;52.650;8.116;2023-06-22T01:13:26;5.50;;;4.03;;
29534;SDS011;16475;52.650;8.116;2023-06-22T01:16:02;5.37;;;3.43;;
29534;SDS011;16475;52.650;8.116;2023-06-22T01:18:29;4.33;;;2.90;;
29534;SDS011;16475;52.650;8.116;2023-06-22T01:20:55;5.57;;;3.63;;
29534;SDS011;16475;52.650;8.116;2023-06-22T01:28:54;13.77;;;5.43;;
29534;SDS011;16475;52.650;8.116;2023-06-22T01:31:22;4.10;;;2.87;;
29534;SDS011;16475;52.650;8.116;2023-06-22T01:33:53;10.60;;;4.97;;
29534;SDS011;16475;52.650;8.116;2023-06-22T01:36:20;10.27;;;5.40;;
29534;SDS011;16475;52.650;8.116;2023-06-22T01:38:46;14.17;;;6.20;;
29534;SDS011;16475;52.650;8.116;2023-06-22T01:41:12;5.53;;;4.30;;
29534;SDS011;16475;52.650;8.116;2023-06-22T01:43:38;10.07;;;4.93;;
29534;SDS011;16475;52.650;8.116;2023-06-22T01:46:04;7.40;;;3.70;;
29534;SDS011;16475;52.650;8.116;2023-06-22T01:48:29;6.93;;;3.87;;
29534;SDS011;16475;52.650;8.116;2023-06-22T01:50:55;4.90;;;3.40;;
29534;SDS011;16475;52.650;8.116;2023-06-22T01:53:21;4.10;;;3.70;;
29534;SDS011;16475;52.650;8.116;2023-06-22T01:55:47;9.47;;;5.10;;
29534;SDS011;16475;52.650;8.116;2023-06-22T01:58:12;5.63;;;5.00;;
29534;SDS011;16475;52.650;8.116;2023-06-22T02:00:38;8.57;;;4.60;;
29534;SDS011;16475;52.650;8.116;2023-06-22T02:03:11;6.60;;;4.93;;
29534;SDS011;16475;52.650;8.116;2023-06-22T02:05:45;10.50;;;5.53;;
29534;SDS011;16475;52.650;8.116;2023-06-22T02:08:20;8.97;;;5.67;;
29534;SDS011;16475;52.650;8.116;2023-06-22T02:10:47;4.50;;;4.10;;
29534;SDS011;16475;52.650;8.116;2023-06-22T02:13:13;4.93;;;4.30;;
29534;SDS011;16475;52.650;8.116;2023-06-22T02:15:40;6.10;;;4.63;;
29534;SDS011;16475;52.650;8.116;2023-06-22T02:18:05;6.70;;;5.27;;
29534;SDS011;16475;52.650;8.116;2023-06-22T02:20:31;9.33;;;4.87;;
29534;SDS011;16475;52.650;8.116;2023-06-22T02:22:56;4.17;;;3.23;;
29534;SDS011;16475;52.650;8.116;2023-06-22T02:25:22;6.23;;;4.43;;
29534;SDS011;16475;52.650;8.116;2023-06-22T02:27:47;9.03;;;5.30;;
29534;SDS011;16475;52.650;8.116;2023-06-22T02:30:13;6.53;;;5.93;;
29534;SDS011;16475;52.650;8.116;2023-06-22T02:32:40;4.50;;;3.90;;
29534;SDS011;16475;52.650;8.116;2023-06-22T02:35:09;9.80;;;5.10;;
29534;SDS011;16475;52.650;8.116;2023-06-22T02:37:35;14.37;;;5.40;;
29534;SDS011;16475;52.650;8.116;2023-06-22T02:40:00;4.57;;;4.10;;
29534;SDS011;16475;52.650;8.116;2023-06-22T02:42:26;9.33;;;4.70;;
29534;SDS011;16475;52.650;8.116;2023-06-22T02:44:52;8.50;;;4.33;;
29534;SDS011;16475;52.650;8.116;2023-06-22T02:47:17;6.20;;;4.73;;
29534;SDS011;16475;52.650;8.116;2023-06-22T02:49:42;7.40;;;3.97;;
29534;SDS011;16475;52.650;8.116;2023-06-22T02:52:09;29.10;;;5.30;;
29534;SDS011;16475;52.650;8.116;2023-06-22T02:54:35;15.60;;;5.13;;
29534;SDS011;16475;52.650;8.116;2023-06-22T02:57:00;7.20;;;4.27;;
29534;SDS011;16475;52.650;8.116;2023-06-22T02:59:27;9.63;;;5.03;;
29534;SDS011;16475;52.650;8.116;2023-06-22T03:01:53;11.57;;;6.37;;
29534;SDS011;16475;52.650;8.116;2023-06-22T03:04:18;21.07;;;5.47;;
29534;SDS011;16475;52.650;8.116;2023-06-22T03:06:43;9.83;;;6.03;;
29534;SDS011;16475;52.650;8.116;2023-06-22T03:09:09;9.07;;;5.40;;
29534;SDS011;16475;52.650;8.116;2023-06-22T03:11:34;8.43;;;5.87;;
29534;SDS011;16475;52.650;8.116;2023-06-22T03:14:00;6.93;;;4.20;;
29534;SDS011;16475;52.650;8.116;2023-06-22T03:16:26;6.87;;;5.60;;
29534;SDS011;16475;52.650;8.116;2023-06-22T03:18:51;7.17;;;4.20;;
29534;SDS011;16475;52.650;8.116;2023-06-22T03:21:18;9.53;;;5.77;;
29534;SDS011;16475;52.650;8.116;2023-06-22T03:23:44;11.03;;;4.47;;
29534;SDS011;16475;52.650;8.116;2023-06-22T03:26:09;10.67;;;6.17;;
29534;SDS011;16475;52.650;8.116;2023-06-22T03:28:35;14.77;;;6.93;;
29534;SDS011;16475;52.650;8.116;2023-06-22T03:31:03;10.53;;;6.20;;
29534;SDS011;16475;52.650;8.116;2023-06-22T03:33:28;5.93;;;3.63;;
29534;SDS011;16475;52.650;8.116;2023-06-22T03:35:54;5.03;;;4.00;;
29534;SDS011;16475;52.650;8.116;2023-06-22T03:38:20;8.47;;;5.20;;
29534;SDS011;16475;52.650;8.116;2023-06-22T03:40:45;17.40;;;6.30;;
29534;SDS011;16475;52.650;8.116;2023-06-22T03:43:11;11.80;;;5.87;;
29534;SDS011;16475;52.650;8.116;2023-06-22T03:45:36;7.63;;;5.30;;
29534;SDS011;16475;52.650;8.116;2023-06-22T03:48:02;9.07;;;6.00;;
29534;SDS011;16475;52.650;8.116;2023-06-22T03:50:27;11.00;;;6.03;;
29534;SDS011;16475;52.650;8.116;2023-06-22T03:52:53;10.83;;;5.33;;
29534;SDS011;16475;52.650;8.116;2023-06-22T03:55:21;11.97;;;6.47;;
29534;SDS011;16475;52.650;8.116;2023-06-22T03:57:47;11.93;;;6.40;;
29534;SDS011;16475;52.650;8.116;2023-06-22T04:00:12;8.67;;;5.77;;
29534;SDS011;16475;52.650;8.116;2023-06-22T04:02:38;9.93;;;6.63;;
29534;SDS011;16475;52.650;8.116;2023-06-22T04:05:03;10.93;;;5.37;;
29534;SDS011;16475;52.650;8.116;2023-06-22T04:07:29;30.20;;;6.57;;
29534;SDS011;16475;52.650;8.116;2023-06-22T04:09:54;12.27;;;6.33;;
29534;SDS011;16475;52.650;8.116;2023-06-22T04:12:20;10.43;;;4.80;;
29534;SDS011;16475;52.650;8.116;2023-06-22T04:14:45;18.50;;;4.90;;
29534;SDS011;16475;52.650;8.116;2023-06-22T04:17:11;9.50;;;6.20;;
29534;SDS011;16475;52.650;8.116;2023-06-22T04:19:39;10.40;;;6.60;;
29534;SDS011;16475;52.650;8.116;2023-06-22T04:22:04;19.40;;;5.47;;
29534;SDS011;16475;52.650;8.116;2023-06-22T04:24:32;8.07;;;4.70;;
29534;SDS011;16475;52.650;8.116;2023-06-22T04:26:57;16.10;;;5.53;;
29534;SDS011;16475;52.650;8.116;2023-06-22T04:29:25;12.57;;;5.73;;
29534;SDS011;16475;52.650;8.116;2023-06-22T04:31:53;9.07;;;5.03;;
29534;SDS011;16475;52.650;8.116;2023-06-22T04:34:20;10.73;;;5.77;;
29534;SDS011;16475;52.650;8.116;2023-06-22T04:36:46;9.63;;;5.40;;
29534;SDS011;16475;52.650;8.116;2023-06-22T04:39:11;7.13;;;5.23;;
29534;SDS011;16475;52.650;8.116;2023-06-22T04:41:37;5.00;;;4.50;;
29534;SDS011;16475;52.650;8.116;2023-06-22T04:44:12;11.00;;;5.67;;
29534;SDS011;16475;52.650;8.116;2023-06-22T04:46:38;5.10;;;4.60;;
29534;SDS011;16475;52.650;8.116;2023-06-22T04:49:06;10.33;;;5.37;;
29534;SDS011;16475;52.650;8.116;2023-06-22T04:51:36;8.83;;;4.27;;
29534;SDS011;16475;52.650;8.116;2023-06-22T04:54:03;7.57;;;4.50;;
29534;SDS011;16475;52.650;8.116;2023-06-22T04:56:30;7.07;;;5.03;;
29534;SDS011;16475;52.650;8.116;2023-06-22T04:58:56;5.90;;;4.63;;
29534;SDS011;16475;52.650;8.116;2023-06-22T05:01:22;7.67;;;5.00;;
29534;SDS011;16475;52.650;8.116;2023-06-22T05:03:48;6.60;;;4.60;;
29534;SDS011;16475;52.650;8.116;2023-06-22T05:06:15;8.80;;;4.33;;
29534;SDS011;16475;52.650;8.116;2023-06-22T05:08:41;5.37;;;4.33;;
29534;SDS011;16475;52.650;8.116;2023-06-22T05:11:06;8.77;;;4.83;;
29534;SDS011;16475;52.650;8.116;2023-06-22T05:13:32;5.27;;;3.97;;
29534;SDS011;16475;52.650;8.116;2023-06-22T05:15:57;7.73;;;4.40;;
29534;SDS011;16475;52.650;8.116;2023-06-22T05:18:30;9.40;;;3.37;;
29534;SDS011;16475;52.650;8.116;2023-06-22T05:20:55;11.80;;;4.30;;
29534;SDS011;16475;52.650;8.116;2023-06-22T05:23:21;5.90;;;4.20;;
29534;SDS011;16475;52.650;8.116;2023-06-22T05:25:46;6.30;;;3.73;;
29534;SDS011;16475;52.650;8.116;2023-06-22T05:28:11;10.40;;;4.97;;
29534;SDS011;16475;52.650;8.116;2023-06-22T05:30:37;4.93;;;3.00;;
29534;SDS011;16475;52.650;8.116;2023-06-22T05:33:02;15.20;;;4.53;;
29534;SDS011;16475;52.650;8.116;2023-06-22T05:35:28;4.30;;;3.80;;
29534;SDS011;16475;52.650;8.116;2023-06-22T05:37:54;6.10;;;3.87;;
29534;SDS011;16475;52.650;8.116;2023-06-22T05:40:20;6.63;;;3.03;;
29534;SDS011;16475;52.650;8.116;2023-06-22T05:42:45;9.00;;;3.67;;
29534;SDS011;16475;52.650;8.116;2023-06-22T05:45:11;5.43;;;3.83;;
29534;SDS011;16475;52.650;8.116;2023-06-22T05:47:37;6.23;;;3.17;;
29534;SDS011;16475;52.650;8.116;2023-06-22T05:50:03;6.57;;;3.80;;
29534;SDS011;16475;52.650;8.116;2023-06-22T05:52:31;5.03;;;2.83;;
29534;SDS011;16475;52.650;8.116;2023-06-22T05:54:57;5.00;;;2.60;;
29534;SDS011;16475;52.650;8.116;2023-06-22T05:57:22;4.33;;;3.07;;
29534;SDS011;16475;52.650;8.116;2023-06-22T05:59:47;5.43;;;3.80;;
29534;SDS011;16475;52.650;8.116;2023-06-22T06:02:13;5.40;;;2.90;;
29534;SDS011;16475;52.650;8.116;2023-06-22T06:04:38;6.00;;;3.87;;
29534;SDS011;16475;52.650;8.116;2023-06-22T06:07:03;20.83;;;4.30;;
29534;SDS011;16475;52.650;8.116;2023-06-22T06:09:29;3.53;;;3.23;;
29534;SDS011;16475;52.650;8.116;2023-06-22T06:11:54;3.50;;;2.90;;
29534;SDS011;16475;52.650;8.116;2023-06-22T06:14:19;2.70;;;2.50;;
29534;SDS011;16475;52.650;8.116;2023-06-22T06:16:45;7.00;;;3.70;;
29534;SDS011;16475;52.650;8.116;2023-06-22T06:19:10;5.20;;;3.40;;
29534;SDS011;16475;52.650;8.116;2023-06-22T06:21:36;3.37;;;2.90;;
29534;SDS011;16475;52.650;8.116;2023-06-22T06:24:01;4.47;;;4.07;;
29534;SDS011;16475;52.650;8.116;2023-06-22T06:26:26;7.90;;;3.47;;
29534;SDS011;16475;52.650;8.116;2023-06-22T06:28:58;10.20;;;2.80;;
29534;SDS011;16475;52.650;8.116;2023-06-22T06:31:24;3.10;;;2.87;;
29534;SDS011;16475;52.650;8.116;2023-06-22T06:33:52;3.23;;;2.93;;
29534;SDS011;16475;52.650;8.116;2023-06-22T06:36:18;5.43;;;3.00;;
29534;SDS011;16475;52.650;8.116;2023-06-22T06:38:44;7.57;;;4.00;;
29534;SDS011;16475;52.650;8.116;2023-06-22T06:41:09;5.50;;;2.50;;
29534;SDS011;16475;52.650;8.116;2023-06-22T06:43:34;4.27;;;2.80;;
29534;SDS011;16475;52.650;8.116;2023-06-22T06:46:00;2.53;;;2.20;;
29534;SDS011;16475;52.650;8.116;2023-06-22T06:48:25;2.40;;;1.77;;
29534;SDS011;16475;52.650;8.116;2023-06-22T06:50:50;32.97;;;3.10;;
29534;SDS011;16475;52.650;8.116;2023-06-22T06:53:16;5.17;;;1.73;;
29534;SDS011;16475;52.650;8.116;2023-06-22T06:55:41;1.60;;;1.50;;
29534;SDS011;16475;52.650;8.116;2023-06-22T06:58:06;4.90;;;2.63;;
29534;SDS011;16475;52.650;8.116;2023-06-22T07:00:33;5.50;;;2.40;;
29534;SDS011;16475;52.650;8.116;2023-06-22T07:02:58;2.07;;;1.90;;
29534;SDS011;16475;52.650;8.116;2023-06-22T07:05:23;2.50;;;1.80;;
29534;SDS011;16475;52.650;8.116;2023-06-22T07:07:49;3.10;;;2.50;;
29534;SDS011;16475;52.650;8.116;2023-06-22T07:10:14;6.77;;;2.30;;
29534;SDS011;16475;52.650;8.116;2023-06-22T07:12:40;4.87;;;2.80;;
29534;SDS011;16475;52.650;8.116;2023-06-22T07:15:06;2.77;;;2.27;;
29534;SDS011;16475;52.650;8.116;2023-06-22T07:17:33;2.37;;;2.17;;
29534;SDS011;16475;52.650;8.116;2023-06-22T07:19:59;2.13;;;2.00;;
29534;SDS011;16475;52.650;8.116;2023-06-22T07:22:25;14.23;;;3.30;;
29534;SDS011;16475;52.650;8.116;2023-06-22T07:24:51;1.93;;;1.83;;
29534;SDS011;16475;52.650;8.116;2023-06-22T07:27:16;4.53;;;1.93;;
29534;SDS011;16475;52.650;8.116;2023-06-22T07:29:44;3.50;;;2.30;;
29534;SDS011;16475;52.650;8.116;2023-06-22T07:32:10;11.20;;;2.50;;
29534;SDS011;16475;52.650;8.116;2023-06-22T07:34:35;3.33;;;2.90;;
29534;SDS011;16475;52.650;8.116;2023-06-22T07:37:01;12.40;;;3.00;;
29534;SDS011;16475;52.650;8.116;2023-06-22T07:39:26;2.60;;;2.00;;
29534;SDS011;16475;52.650;8.116;2023-06-22T07:41:53;4.70;;;2.67;;
29534;SDS011;16475;52.650;8.116;2023-06-22T07:44:18;4.37;;;2.70;;
29534;SDS011;16475;52.650;8.116;2023-06-22T07:46:44;2.73;;;2.07;;
29534;SDS011;16475;52.650;8.116;2023-06-22T07:49:09;2.40;;;1.90;;
29534;SDS011;16475;52.650;8.116;2023-06-22T07:51:34;2.43;;;2.23;;
29534;SDS011;16475;52.650;8.116;2023-06-22T07:54:00;4.53;;;3.00;;
29534;SDS011;16475;52.650;8.116;2023-06-22T07:56:25;8.37;;;3.60;;
29534;SDS011;16475;52.650;8.116;2023-06-22T07:58:51;5.10;;;2.10;;
29534;SDS011;16475;52.650;8.116;2023-06-22T08:01:16;4.07;;;3.20;;
29534;SDS011;16475;52.650;8.116;2023-06-22T08:03:42;3.37;;;2.10;;
29534;SDS011;16475;52.650;8.116;2023-06-22T08:06:08;4.43;;;3.27;;
29534;SDS011;16475;52.650;8.116;2023-06-22T08:08:34;4.30;;;3.17;;
29534;SDS011;16475;52.650;8.116;2023-06-22T08:11:00;3.27;;;2.50;;
29534;SDS011;16475;52.650;8.116;2023-06-22T08:13:25;1.83;;;1.73;;
29534;SDS011;16475;52.650;8.116;2023-06-22T08:15:51;4.40;;;2.77;;
29534;SDS011;16475;52.650;8.116;2023-06-22T08:18:16;7.23;;;3.00;;
29534;SDS011;16475;52.650;8.116;2023-06-22T08:20:42;6.87;;;2.70;;
29534;SDS011;16475;52.650;8.116;2023-06-22T08:23:07;2.03;;;1.87;;
29534;SDS011;16475;52.650;8.116;2023-06-22T08:25:33;7.60;;;2.93;;
29534;SDS011;16475;52.650;8.116;2023-06-22T08:27:59;15.20;;;3.40;;
29534;SDS011;16475;52.650;8.116;2023-06-22T08:30:25;1.97;;;1.77;;
29534;SDS011;16475;52.650;8.116;2023-06-22T08:32:50;3.90;;;2.50;;
29534;SDS011;16475;52.650;8.116;2023-06-22T08:35:15;2.33;;;2.07;;
29534;SDS011;16475;52.650;8.116;2023-06-22T08:37:41;6.57;;;2.43;;
29534;SDS011;16475;52.650;8.116;2023-06-22T08:40:07;4.57;;;2.60;;
29534;SDS011;16475;52.650;8.116;2023-06-22T08:42:34;3.97;;;2.30;;
29534;SDS011;16475;52.650;8.116;2023-06-22T08:45:00;2.90;;;2.20;;
29534;SDS011;16475;52.650;8.116;2023-06-22T08:47:27;3.63;;;2.77;;
29534;SDS011;16475;52.650;8.116;2023-06-22T08:49:53;4.17;;;3.13;;
29534;SDS011;16475;52.650;8.116;2023-06-22T08:52:18;5.03;;;2.30;;
29534;SDS011;16475;52.650;8.116;2023-06-22T08:54:45;3.00;;;2.20;;
29534;SDS011;16475;52.650;8.116;2023-06-22T08:57:10;4.13;;;3.27;;
29534;SDS011;16475;52.650;8.116;2023-06-22T08:59:35;2.73;;;1.63;;
29534;SDS011;16475;52.650;8.116;2023-06-22T09:02:01;4.90;;;3.17;;
29534;SDS011;16475;52.650;8.116;2023-06-22T09:04:26;3.07;;;2.10;;
29534;SDS011;16475;52.650;8.116;2023-06-22T09:06:51;13.47;;;2.60;;
29534;SDS011;16475;52.650;8.116;2023-06-22T09:09:18;6.47;;;2.20;;
29534;SDS011;16475;52.650;8.116;2023-06-22T09:11:43;3.83;;;2.70;;
29534;SDS011;16475;52.650;8.116;2023-06-22T09:14:09;9.33;;;1.83;;
29534;SDS011;16475;52.650;8.116;2023-06-22T09:16:35;2.87;;;2.20;;
29534;SDS011;16475;52.650;8.116;2023-06-22T09:19:00;3.63;;;2.10;;
29534;SDS011;16475;52.650;8.116;2023-06-22T09:21:25;2.57;;;2.37;;
29534;SDS011;16475;52.650;8.116;2023-06-22T09:23:51;3.67;;;2.13;;
29534;SDS011;16475;52.650;8.116;2023-06-22T09:26:17;3.20;;;2.40;;
29534;SDS011;16475;52.650;8.116;2023-06-22T09:28:43;3.10;;;2.80;;
29534;SDS011;16475;52.650;8.116;2023-06-22T09:31:08;3.80;;;2.80;;
29534;SDS011;16475;52.650;8.116;2023-06-22T09:33:33;3.50;;;2.10;;
29534;SDS011;16475;52.650;8.116;2023-06-22T09:35:59;5.50;;;2.87;;
29534;SDS011;16475;52.650;8.116;2023-06-22T09:38:24;6.00;;;3.10;;
29534;SDS011;16475;52.650;8.116;2023-06-22T09:40:50;4.73;;;2.97;;
29534;SDS011;16475;52.650;8.116;2023-06-22T09:43:15;3.30;;;2.70;;
29534;SDS011;16475;52.650;8.116;2023-06-22T09:45:41;2.80;;;2.57;;
29534;SDS011;16475;52.650;8.116;2023-06-22T09:48:06;4.93;;;2.50;;
29534;SDS011;16475;52.650;8.116;2023-06-22T09:50:31;3.77;;;3.10;;
29534;SDS011;16475;52.650;8.116;2023-06-22T09:52:57;11.17;;;4.10;;
29534;SDS011;16475;52.650;8.116;2023-06-22T09:55:22;11.00;;;3.17;;
29534;SDS011;16475;52.650;8.116;2023-06-22T09:57:47;21.73;;;3.27;;
29534;SDS011;16475;52.650;8.116;2023-06-22T10:00:13;8.37;;;2.80;;
29534;SDS011;16475;52.650;8.116;2023-06-22T10:02:43;4.90;;;2.90;;
29534;SDS011;16475;52.650;8.116;2023-06-22T10:05:09;5.53;;;3.30;;
29534;SDS011;16475;52.650;8.116;2023-06-22T10:07:34;4.87;;;2.93;;
29534;SDS011;16475;52.650;8.116;2023-06-22T10:10:04;9.30;;;3.50;;
29534;SDS011;16475;52.650;8.116;2023-06-22T10:12:31;4.03;;;2.70;;
29534;SDS011;16475;52.650;8.116;2023-06-22T10:14:56;8.97;;;3.83;;
29534;SDS011;16475;52.650;8.116;2023-06-22T10:17:21;10.43;;;3.23;;
29534;SDS011;16475;52.650;8.116;2023-06-22T10:19:47;4.10;;;3.40;;
29534;SDS011;16475;52.650;8.116;2023-06-22T10:22:12;4.63;;;2.90;;
29534;SDS011;16475;52.650;8.116;2023-06-22T10:24:37;5.43;;;3.07;;
29534;SDS011;16475;52.650;8.116;2023-06-22T10:27:09;7.60;;;3.87;;
29534;SDS011;16475;52.650;8.116;2023-06-22T10:29:34;8.27;;;3.27;;
29534;SDS011;16475;52.650;8.116;2023-06-22T10:32:00;5.40;;;3.77;;
29534;SDS011;16475;52.650;8.116;2023-06-22T10:34:25;7.80;;;3.30;;
29534;SDS011;16475;52.650;8.116;2023-06-22T10:36:50;20.67;;;3.30;;
29534;SDS011;16475;52.650;8.116;2023-06-22T10:39:16;5.60;;;4.17;;
29534;SDS011;16475;52.650;8.116;2023-06-22T10:41:41;3.93;;;2.83;;
29534;SDS011;16475;52.650;8.116;2023-06-22T10:44:07;5.60;;;2.97;;
29534;SDS011;16475;52.650;8.116;2023-06-22T10:46:32;6.33;;;3.40;;
29534;SDS011;16475;52.650;8.116;2023-06-22T10:48:57;4.20;;;3.47;;
29534;SDS011;16475;52.650;8.116;2023-06-22T10:51:23;9.97;;;2.93;;
29534;SDS011;16475;52.650;8.116;2023-06-22T10:53:51;5.50;;;3.10;;
29534;SDS011;16475;52.650;8.116;2023-06-22T10:56:16;3.60;;;2.83;;
29534;SDS011;16475;52.650;8.116;2023-06-22T10:58:44;4.50;;;2.70;;
29534;SDS011;16475;52.650;8.116;2023-06-22T11:01:10;3.70;;;2.77;;
29534;SDS011;16475;52.650;8.116;2023-06-22T11:03:35;4.87;;;2.93;;
29534;SDS011;16475;52.650;8.116;2023-06-22T11:06:01;3.23;;;2.40;;
29534;SDS011;16475;52.650;8.116;2023-06-22T11:08:26;4.57;;;2.63;;
29534;SDS011;16475;52.650;8.116;2023-06-22T11:10:51;3.03;;;2.20;;
29534;SDS011;16475;52.650;8.116;2023-06-22T11:13:17;4.87;;;2.83;;
29534;SDS011;16475;52.650;8.116;2023-06-22T11:15:43;3.20;;;2.73;;
29534;SDS011;16475;52.650;8.116;2023-06-22T11:18:08;9.47;;;3.33;;
29534;SDS011;16475;52.650;8.116;2023-06-22T11:20:34;7.00;;;3.23;;
29534;SDS011;16475;52.650;8.116;2023-06-22T11:23:03;4.17;;;3.03;;
29534;SDS011;16475;52.650;8.116;2023-06-22T11:25:29;5.63;;;2.60;;
29534;SDS011;16475;52.650;8.116;2023-06-22T11:27:54;3.77;;;2.27;;
29534;SDS011;16475;52.650;8.116;2023-06-22T11:30:20;5.13;;;2.60;;
29534;SDS011;16475;52.650;8.116;2023-06-22T11:32:45;4.07;;;3.20;;
29534;SDS011;16475;52.650;8.116;2023-06-22T11:35:10;3.43;;;2.43;;
29534;SDS011;16475;52.650;8.116;2023-06-22T11:37:36;3.70;;;2.93;;
29534;SDS011;16475;52.650;8.116;2023-06-22T11:40:01;2.67;;;2.47;;
29534;SDS011;16475;52.650;8.116;2023-06-22T11:42:30;4.43;;;2.70;;
29534;SDS011;16475;52.650;8.116;2023-06-22T11:44:55;5.80;;;2.90;;
29534;SDS011;16475;52.650;8.116;2023-06-22T11:47:20;3.07;;;1.80;;
29534;SDS011;16475;52.650;8.116;2023-06-22T11:49:46;5.00;;;3.33;;
29534;SDS011;16475;52.650;8.116;2023-06-22T11:52:11;3.70;;;2.50;;
29534;SDS011;16475;52.650;8.116;2023-06-22T11:54:37;3.70;;;2.20;;
29534;SDS011;16475;52.650;8.116;2023-06-22T11:57:03;6.90;;;2.00;;
29534;SDS011;16475;52.650;8.116;2023-06-22T11:59:29;1.87;;;1.70;;
29534;SDS011;16475;52.650;8.116;2023-06-22T12:01:54;3.93;;;2.90;;
29534;SDS011;16475;52.650;8.116;2023-06-22T12:04:19;6.50;;;2.73;;
29534;SDS011;16475;52.650;8.116;2023-06-22T12:06:45;5.93;;;3.00;;
29534;SDS011;16475;52.650;8.116;2023-06-22T12:09:10;3.30;;;2.57;;
29534;SDS011;16475;52.650;8.116;2023-06-22T12:11:35;6.20;;;3.03;;
29534;SDS011;16475;52.650;8.116;2023-06-22T12:14:01;4.20;;;2.20;;
29534;SDS011;16475;52.650;8.116;2023-06-22T12:16:30;6.83;;;2.37;;
29534;SDS011;16475;52.650;8.116;2023-06-22T12:18:55;8.43;;;3.13;;
29534;SDS011;16475;52.650;8.116;2023-06-22T12:21:21;5.87;;;2.77;;
29534;SDS011;16475;52.650;8.116;2023-06-22T12:23:46;6.73;;;2.60;;
29534;SDS011;16475;52.650;8.116;2023-06-22T12:26:12;2.67;;;2.40;;
29534;SDS011;16475;52.650;8.116;2023-06-22T12:28:37;2.27;;;2.07;;
29534;SDS011;16475;52.650;8.116;2023-06-22T12:31:02;3.63;;;2.47;;
29534;SDS011;16475;52.650;8.116;2023-06-22T12:33:27;4.90;;;2.57;;
29534;SDS011;16475;52.650;8.116;2023-06-22T12:35:53;12.03;;;1.70;;
29534;SDS011;16475;52.650;8.116;2023-06-22T12:38:18;27.17;;;2.70;;
29534;SDS011;16475;52.650;8.116;2023-06-22T12:40:45;7.50;;;3.10;;
29534;SDS011;16475;52.650;8.116;2023-06-22T12:43:12;3.23;;;1.97;;
29534;SDS011;16475;52.650;8.116;2023-06-22T12:45:37;10.93;;;2.43;;
29534;SDS011;16475;52.650;8.116;2023-06-22T12:48:02;2.63;;;2.40;;
29534;SDS011;16475;52.650;8.116;2023-06-22T12:50:28;5.33;;;2.57;;
29534;SDS011;16475;52.650;8.116;2023-06-22T12:52:53;4.17;;;1.90;;
29534;SDS011;16475;52.650;8.116;2023-06-22T12:55:19;6.83;;;2.07;;
29534;SDS011;16475;52.650;8.116;2023-06-22T12:57:44;3.47;;;2.40;;
29534;SDS011;16475;52.650;8.116;2023-06-22T13:00:10;11.00;;;2.47;;
29534;SDS011;16475;52.650;8.116;2023-06-22T13:02:36;2.27;;;2.03;;
29534;SDS011;16475;52.650;8.116;2023-06-22T13:05:02;4.27;;;2.40;;
29534;SDS011;16475;52.650;8.116;2023-06-22T13:07:30;3.10;;;2.10;;
29534;SDS011;16475;52.650;8.116;2023-06-22T13:09:55;6.13;;;2.90;;
29534;SDS011;16475;52.650;8.116;2023-06-22T13:12:20;2.80;;;2.30;;
29534;SDS011;16475;52.650;8.116;2023-06-22T13:14:46;5.33;;;2.87;;
29534;SDS011;16475;52.650;8.116;2023-06-22T13:17:12;3.80;;;3.03;;
29534;SDS011;16475;52.650;8.116;2023-06-22T13:19:38;4.17;;;3.03;;
29534;SDS011;16475;52.650;8.116;2023-06-22T13:22:04;2.53;;;1.80;;
29534;SDS011;16475;52.650;8.116;2023-06-22T13:24:30;2.80;;;2.20;;
29534;SDS011;16475;52.650;8.116;2023-06-22T13:26:55;2.33;;;1.77;;
29534;SDS011;16475;52.650;8.116;2023-06-22T13:29:21;3.60;;;1.80;;
29534;SDS011;16475;52.650;8.116;2023-06-22T13:31:46;2.80;;;2.33;;
29534;SDS011;16475;52.650;8.116;2023-06-22T13:34:11;4.23;;;2.70;;
29534;SDS011;16475;52.650;8.116;2023-06-22T13:36:37;9.07;;;4.27;;
29534;SDS011;16475;52.650;8.116;2023-06-22T13:39:02;5.93;;;3.07;;
29534;SDS011;16475;52.650;8.116;2023-06-22T13:41:28;3.53;;;2.90;;
29534;SDS011;16475;52.650;8.116;2023-06-22T13:43:54;2.50;;;2.30;;
29534;SDS011;16475;52.650;8.116;2023-06-22T13:46:19;3.40;;;2.80;;
29534;SDS011;16475;52.650;8.116;2023-06-22T13:48:44;3.43;;;3.13;;
29534;SDS011;16475;52.650;8.116;2023-06-22T13:51:10;6.63;;;3.17;;
29534;SDS011;16475;52.650;8.116;2023-06-22T13:53:35;3.77;;;3.30;;
29534;SDS011;16475;52.650;8.116;2023-06-22T13:56:00;6.87;;;3.67;;
29534;SDS011;16475;52.650;8.116;2023-06-22T13:58:25;3.33;;;2.27;;
29534;SDS011;16475;52.650;8.116;2023-06-22T14:00:51;6.33;;;3.10;;
29534;SDS011;16475;52.650;8.116;2023-06-22T14:03:16;3.43;;;2.13;;
29534;SDS011;16475;52.650;8.116;2023-06-22T14:05:42;14.27;;;2.30;;
29534;SDS011;16475;52.650;8.116;2023-06-22T14:08:08;4.47;;;2.97;;
29534;SDS011;16475;52.650;8.116;2023-06-22T14:10:34;6.90;;;3.93;;
29534;SDS011;16475;52.650;8.116;2023-06-22T14:12:59;3.97;;;3.03;;
29534;SDS011;16475;52.650;8.116;2023-06-22T14:15:25;7.90;;;3.80;;
29534;SDS011;16475;52.650;8.116;2023-06-22T14:17:50;6.53;;;2.87;;
29534;SDS011;16475;52.650;8.116;2023-06-22T14:20:15;2.73;;;2.53;;
29534;SDS011;16475;52.650;8.116;2023-06-22T14:22:41;3.07;;;2.77;;
29534;SDS011;16475;52.650;8.116;2023-06-22T14:25:07;9.50;;;4.40;;
29534;SDS011;16475;52.650;8.116;2023-06-22T14:27:32;6.07;;;3.27;;
29534;SDS011;16475;52.650;8.116;2023-06-22T14:29:58;5.20;;;3.13;;
29534;SDS011;16475;52.650;8.116;2023-06-22T14:32:23;5.70;;;3.50;;
29534;SDS011;16475;52.650;8.116;2023-06-22T14:34:49;7.23;;;4.30;;
29534;SDS011;16475;52.650;8.116;2023-06-22T14:37:15;5.90;;;3.90;;
29534;SDS011;16475;52.650;8.116;2023-06-22T14:39:40;9.67;;;4.40;;
29534;SDS011;16475;52.650;8.116;2023-06-22T14:42:05;3.87;;;3.20;;
29534;SDS011;16475;52.650;8.116;2023-06-22T14:44:31;13.37;;;4.60;;